Wetterdaten: Woche 07.02.05 - 13.02.05 (KW6)
Datum Zeit Temperatur Luftfeuchte Luftdruck Niederschlag Wind Richtung Sonne Solar Taupunkt Windchill
07.02.2005 00:00 -0.7 C 92 % 1026.4 hPa 0.0 l/m 0.2 km/h (0 Bft) W-NW 0.00 h 0 W/m -1.8 C -0.8 C
07.02.2005 01:00 -0.7 C 90 % 1026.5 hPa 0.0 l/m 2.2 km/h (1 Bft) O-SO 0.00 h 0 W/m -2.2 C -1.5 C
07.02.2005 02:00 -0.7 C 81 % 1026.5 hPa 0.0 l/m 4.1 km/h (1 Bft) O-SO 0.00 h 0 W/m -3.5 C -2.1 C
07.02.2005 03:00 -0.9 C 80 % 1026.0 hPa 0.0 l/m 4.5 km/h (1 Bft) O-SO 0.00 h 0 W/m -3.9 C -2.0 C
07.02.2005 04:00 -1.2 C 80 % 1026.1 hPa 0.0 l/m 4.4 km/h (1 Bft) O-SO 0.00 h 0 W/m -4.3 C -2.6 C
07.02.2005 05:00 -1.5 C 80 % 1026.1 hPa 0.0 l/m 6.6 km/h (2 Bft) O-SO 0.00 h 0 W/m -4.5 C -3.9 C
07.02.2005 06:00 -1.9 C 82 % 1026.2 hPa 0.0 l/m 9.2 km/h (2 Bft) O-SO 0.00 h 0 W/m -4.6 C -4.9 C
07.02.2005 07:00 -2.0 C 86 % 1027.1 hPa 0.0 l/m 10.9 km/h (2 Bft) O-SO 0.00 h 7 W/m -4.0 C -5.7 C
07.02.2005 08:00 -1.9 C 84 % 1027.2 hPa 0.0 l/m 11.5 km/h (2 Bft) O-SO 0.00 h 30 W/m -4.2 C -5.9 C
07.02.2005 09:00 -1.1 C 83 % 1027.2 hPa 0.0 l/m 7.1 km/h (2 Bft) O-SO 0.13 h 118 W/m -3.7 C -3.3 C
07.02.2005 10:00 -0.3 C 77 % 1027.9 hPa 0.0 l/m 10.4 km/h (2 Bft) O-SO 0.47 h 226 W/m -3.9 C -3.6 C
07.02.2005 11:00 0.6 C 74 % 1027.9 hPa 0.0 l/m 6.0 km/h (2 Bft) O-SO 0.90 h 333 W/m -3.6 C -1.2 C
07.02.2005 12:00 2.4 C 66 % 1027.3 hPa 0.0 l/m 4.5 km/h (1 Bft) O-SO 0.97 h 326 W/m -3.3 C 1.2 C
07.02.2005 13:00 2.7 C 64 % 1026.5 hPa 0.0 l/m 1.6 km/h (1 Bft) W 0.23 h 262 W/m -3.5 C 2.3 C
07.02.2005 14:00 3.8 C 61 % 1026.0 hPa 0.0 l/m 0.3 km/h (0 Bft) W-NW 0.87 h 336 W/m -3.1 C 3.8 C
07.02.2005 15:00 4.3 C 61 % 1026.2 hPa 0.0 l/m 2.5 km/h (1 Bft) W-NW 1.00 h 258 W/m -2.6 C 3.8 C
07.02.2005 16:00 3.7 C 64 % 1025.4 hPa 0.0 l/m 1.0 km/h (0 Bft) W 0.83 h 115 W/m -2.4 C 3.6 C
07.02.2005 17:00 1.5 C 72 % 1026.7 hPa 0.0 l/m 2.4 km/h (1 Bft) O-SO 0.07 h 24 W/m -2.9 C 1.1 C
07.02.2005 18:00 -0.3 C 77 % 1027.0 hPa 0.0 l/m 3.5 km/h (1 Bft) O-SO 0.00 h 0 W/m -3.8 C -1.3 C
07.02.2005 19:00 -0.8 C 79 % 1027.9 hPa 0.0 l/m 0.0 km/h (0 Bft) N 0.00 h 0 W/m -3.9 C -0.8 C
07.02.2005 20:00 -2.1 C 86 % 1028.3 hPa 0.0 l/m 0.0 km/h (0 Bft) N 0.00 h 0 W/m -4.1 C -2.1 C
07.02.2005 21:00 -3.0 C 91 % 1028.5 hPa 0.0 l/m 0.0 km/h (0 Bft) N 0.00 h 0 W/m -4.2 C -3.0 C
07.02.2005 22:00 -3.4 C 93 % 1029.4 hPa 0.0 l/m 0.0 km/h (0 Bft) N 0.00 h 0 W/m -4.3 C -3.4 C
07.02.2005 23:00 -3.7 C 95 % 1029.5 hPa 0.0 l/m 0.1 km/h (0 Bft) N-NO 0.00 h 0 W/m -4.3 C -3.7 C
08.02.2005 00:00 -4.0 C 96 % 1029.6 hPa 0.0 l/m 1.3 km/h (1 Bft) O-SO 0.00 h 0 W/m -4.5 C -4.6 C
08.02.2005 01:00 -4.6 C 96 % 1029.7 hPa 0.0 l/m 1.1 km/h (0 Bft) O-SO 0.00 h 0 W/m -5.1 C -4.6 C
08.02.2005 02:00 -4.7 C 96 % 1029.7 hPa 0.0 l/m 2.4 km/h (1 Bft) O-SO 0.00 h 0 W/m -5.3 C -5.4 C
08.02.2005 03:00 -4.4 C 95 % 1030.0 hPa 0.0 l/m 1.8 km/h (1 Bft) O-SO 0.00 h 0 W/m -5.1 C -4.5 C
08.02.2005 04:00 -4.7 C 94 % 1030.7 hPa 0.0 l/m 0.2 km/h (0 Bft) O-SO 0.00 h 0 W/m -5.5 C -4.8 C
08.02.2005 05:00 -4.7 C 94 % 1030.7 hPa 0.0 l/m 1.2 km/h (1 Bft) O-SO 0.00 h 0 W/m -5.5 C -5.1 C
08.02.2005 06:00 -5.1 C 92 % 1030.8 hPa 0.0 l/m 0.1 km/h (0 Bft) O-SO 0.00 h 0 W/m -6.2 C -5.1 C
08.02.2005 07:00 -4.8 C 93 % 1031.0 hPa 0.0 l/m 1.5 km/h (1 Bft) O-SO 0.07 h 11 W/m -5.8 C -4.9 C
08.02.2005 08:00 -3.8 C 92 % 1031.6 hPa 0.0 l/m 0.3 km/h (0 Bft) O-SO 0.37 h 65 W/m -4.9 C -3.8 C
08.02.2005 09:00 -2.4 C 87 % 1032.2 hPa 0.0 l/m 0.0 km/h (0 Bft) N 0.43 h 182 W/m -4.3 C -2.4 C
08.02.2005 10:00 -0.9 C 81 % 1032.3 hPa 0.0 l/m 0.2 km/h (0 Bft) W 0.73 h 287 W/m -3.7 C -0.9 C
08.02.2005 11:00 1.0 C 72 % 1032.0 hPa 0.0 l/m 0.0 km/h (0 Bft) N 0.63 h 337 W/m -3.4 C 1.0 C
08.02.2005 12:00 3.6 C 60 % 1030.9 hPa 0.0 l/m 1.4 km/h (1 Bft) NW 0.93 h 492 W/m -3.6 C 3.3 C
08.02.2005 13:00 5.4 C 53 % 1030.3 hPa 0.0 l/m 1.8 km/h (1 Bft) W-NW 0.67 h 409 W/m -3.4 C 5.1 C
08.02.2005 14:00 8.6 C 40 % 1029.0 hPa 0.0 l/m 6.1 km/h (2 Bft) SO 0.90 h 394 W/m -4.3 C 7.8 C
08.02.2005 15:00 7.8 C 41 % 1028.9 hPa 0.0 l/m 3.6 km/h (1 Bft) SO 1.00 h 323 W/m -4.6 C 7.4 C
08.02.2005 16:00 6.5 C 49 % 1029.1 hPa 0.0 l/m 1.9 km/h (1 Bft) W-NW 0.90 h 143 W/m -3.4 C 6.3 C
08.02.2005 17:00 4.1 C 59 % 1029.9 hPa 0.0 l/m 0.6 km/h (0 Bft) O-SO 0.33 h 35 W/m -3.2 C 4.0 C
08.02.2005 18:00 1.6 C 70 % 1030.8 hPa 0.0 l/m 0.0 km/h (0 Bft) N 0.00 h 0 W/m -3.2 C 1.6 C
08.02.2005 19:00 -0.0 C 78 % 1031.1 hPa 0.0 l/m 0.5 km/h (0 Bft) O-SO 0.00 h 0 W/m -3.5 C -0.0 C
08.02.2005 20:00 -1.1 C 85 % 1032.2 hPa 0.0 l/m 0.1 km/h (0 Bft) O-SO 0.00 h 0 W/m -3.4 C -1.1 C
08.02.2005 21:00 -0.9 C 84 % 1032.2 hPa 0.0 l/m 0.6 km/h (0 Bft) O-SO 0.00 h 0 W/m -3.2 C -1.0 C
08.02.2005 22:00 -1.2 C 85 % 1033.1 hPa 0.0 l/m 1.7 km/h (1 Bft) O-SO 0.00 h 0 W/m -3.4 C -1.6 C
08.02.2005 23:00 -1.2 C 87 % 1033.3 hPa 0.0 l/m 1.7 km/h (1 Bft) O-SO 0.00 h 0 W/m -3.1 C -1.6 C
09.02.2005 00:00 -1.2 C 86 % 1033.3 hPa 0.0 l/m 0.2 km/h (0 Bft) O-SO 0.00 h 0 W/m -3.2 C -1.2 C
09.02.2005 01:00 -1.1 C 85 % 1033.3 hPa 0.0 l/m 1.9 km/h (1 Bft) O-SO 0.00 h 0 W/m -3.4 C -1.7 C
09.02.2005 02:00 -2.4 C 88 % 1033.5 hPa 0.0 l/m 3.1 km/h (1 Bft) O-SO 0.00 h 0 W/m -4.2 C -3.3 C
09.02.2005 03:00 -2.8 C 92 % 1033.6 hPa 0.0 l/m 3.4 km/h (1 Bft) O-SO 0.00 h 0 W/m -3.9 C -3.7 C
09.02.2005 04:00 -3.4 C 93 % 1033.7 hPa 0.0 l/m 2.3 km/h (1 Bft) O-SO 0.00 h 0 W/m -4.4 C -4.2 C
09.02.2005 05:00 -4.2 C 93 % 1033.8 hPa 0.0 l/m 0.0 km/h (0 Bft) N 0.00 h 0 W/m -5.1 C -4.2 C
09.02.2005 06:00 -4.4 C 94 % 1033.8 hPa 0.0 l/m 0.9 km/h (0 Bft) O-SO 0.00 h 0 W/m -5.1 C -4.5 C
09.02.2005 07:00 -4.8 C 95 % 1034.5 hPa 0.0 l/m 0.7 km/h (0 Bft) O-SO 0.03 h 11 W/m -5.4 C -5.0 C
09.02.2005 08:00 -4.3 C 92 % 1034.8 hPa 0.0 l/m 0.7 km/h (0 Bft) O-SO 0.37 h 60 W/m -5.4 C -4.3 C
09.02.2005 09:00 -3.4 C 90 % 1034.7 hPa 0.0 l/m 1.3 km/h (1 Bft) O-SO 0.00 h 94 W/m -4.7 C -3.7 C
09.02.2005 10:00 -1.9 C 85 % 1034.5 hPa 0.0 l/m 0.0 km/h (0 Bft) N 0.80 h 333 W/m -4.1 C -1.9 C
09.02.2005 11:00 0.7 C 73 % 1034.1 hPa 0.0 l/m 1.1 km/h (0 Bft) O-SO 1.00 h 449 W/m -3.6 C 0.6 C
09.02.2005 12:00 3.6 C 61 % 1033.6 hPa 0.0 l/m 5.2 km/h (1 Bft) O-SO 1.00 h 496 W/m -3.3 C 2.5 C
09.02.2005 13:00 6.0 C 52 % 1032.3 hPa 0.0 l/m 6.6 km/h (2 Bft) O-SO 1.00 h 488 W/m -3.2 C 4.7 C
09.02.2005 14:00 7.0 C 45 % 1031.2 hPa 0.0 l/m 1.8 km/h (1 Bft) O-SO 1.00 h 435 W/m -4.0 C 6.8 C
09.02.2005 15:00 7.5 C 41 % 1031.0 hPa 0.0 l/m 1.4 km/h (1 Bft) SO 1.00 h 332 W/m -4.7 C 7.4 C
09.02.2005 16:00 7.0 C 42 % 1031.1 hPa 0.0 l/m 1.9 km/h (1 Bft) SO 1.00 h 189 W/m -4.9 C 6.8 C
09.02.2005 17:00 4.8 C 52 % 1031.7 hPa 0.0 l/m 2.8 km/h (1 Bft) SO 0.47 h 44 W/m -4.2 C 4.6 C
09.02.2005 18:00 1.6 C 68 % 1032.9 hPa 0.0 l/m 5.2 km/h (1 Bft) O-SO 0.00 h 0 W/m -3.7 C 0.2 C
09.02.2005 19:00 -0.1 C 75 % 1034.0 hPa 0.0 l/m 3.8 km/h (1 Bft) O-SO 0.00 h 0 W/m -4.0 C -1.2 C
09.02.2005 20:00 -1.0 C 79 % 1034.3 hPa 0.0 l/m 1.8 km/h (1 Bft) O-SO 0.00 h 0 W/m -4.2 C -1.4 C
09.02.2005 21:00 -2.2 C 85 % 1034.6 hPa 0.0 l/m 0.4 km/h (0 Bft) O-SO 0.00 h 0 W/m -4.4 C -2.3 C
09.02.2005 22:00 -2.8 C 89 % 1035.1 hPa 0.0 l/m 0.6 km/h (0 Bft) O 0.00 h 0 W/m -4.3 C -2.8 C
09.02.2005 23:00 -3.1 C 91 % 1035.5 hPa 0.0 l/m 0.2 km/h (0 Bft) O 0.00 h 0 W/m -4.3 C -3.1 C
10.02.2005 00:00 -3.6 C 92 % 1035.8 hPa 0.0 l/m 0.6 km/h (0 Bft) O 0.00 h 0 W/m -4.6 C -3.6 C
10.02.2005 01:00 -3.8 C 94 % 1035.8 hPa 0.0 l/m 1.3 km/h (1 Bft) O-SO 0.00 h 0 W/m -4.6 C -4.2 C
10.02.2005 02:00 -3.9 C 94 % 1035.8 hPa 0.0 l/m 1.0 km/h (0 Bft) O-SO 0.00 h 0 W/m -4.7 C -4.1 C
10.02.2005 03:00 -4.0 C 94 % 1035.8 hPa 0.0 l/m 1.3 km/h (1 Bft) O-SO 0.00 h 0 W/m -4.8 C -4.4 C
10.02.2005 04:00 -3.8 C 94 % 1035.8 hPa 0.0 l/m 3.0 km/h (1 Bft) O-SO 0.00 h 0 W/m -4.5 C -4.8 C
10.02.2005 05:00 -4.3 C 93 % 1035.9 hPa 0.0 l/m 1.2 km/h (1 Bft) O-SO 0.00 h 0 W/m -5.2 C -4.8 C
10.02.2005 06:00 -3.9 C 94 % 1035.8 hPa 0.0 l/m 1.9 km/h (1 Bft) O-SO 0.00 h 0 W/m -4.8 C -4.6 C
10.02.2005 07:00 -3.5 C 92 % 1035.8 hPa 0.0 l/m 2.6 km/h (1 Bft) O-SO 0.10 h 15 W/m -4.6 C -4.2 C
10.02.2005 08:00 -2.7 C 86 % 1035.8 hPa 0.0 l/m 0.9 km/h (0 Bft) O-SO 1.00 h 97 W/m -4.8 C -2.9 C
10.02.2005 09:00 -0.7 C 76 % 1035.3 hPa 0.0 l/m 0.0 km/h (0 Bft) N 0.73 h 193 W/m -4.4 C -0.7 C
10.02.2005 10:00 1.5 C 67 % 1035.1 hPa 0.0 l/m 2.3 km/h (1 Bft) N-NO 0.93 h 246 W/m -3.9 C 0.9 C
10.02.2005 11:00 2.7 C 61 % 1034.8 hPa 0.0 l/m 8.8 km/h (2 Bft) SO 0.20 h 246 W/m -4.0 C 0.6 C
10.02.2005 12:00 4.9 C 56 % 1033.8 hPa 0.0 l/m 12.1 km/h (2 Bft) SO 0.93 h 356 W/m -3.3 C 2.2 C
10.02.2005 13:00 5.6 C 53 % 1033.4 hPa 0.0 l/m 11.8 km/h (2 Bft) SO 0.17 h 187 W/m -3.1 C 3.2 C
10.02.2005 14:00 6.0 C 54 % 1032.4 hPa 0.0 l/m 3.5 km/h (1 Bft) O-SO 0.00 h 129 W/m -2.6 C 5.4 C
10.02.2005 15:00 5.8 C 54 % 1032.3 hPa 0.0 l/m 4.1 km/h (1 Bft) SO 0.00 h 67 W/m -2.7 C 5.0 C
10.02.2005 16:00 5.4 C 56 % 1032.4 hPa 0.0 l/m 8.6 km/h (2 Bft) SO 0.00 h 35 W/m -2.8 C 3.6 C
10.02.2005 17:00 4.8 C 58 % 1032.4 hPa 0.0 l/m 10.8 km/h (2 Bft) SO 0.00 h 8 W/m -2.7 C 2.3 C
10.02.2005 18:00 4.6 C 59 % 1031.9 hPa 0.0 l/m 14.9 km/h (3 Bft) SO 0.00 h 0 W/m -2.6 C 1.3 C
10.02.2005 19:00 4.9 C 67 % 1032.4 hPa 0.0 l/m 12.9 km/h (3 Bft) W-NW 0.00 h 0 W/m -0.8 C 2.3 C
10.02.2005 20:00 4.3 C 86 % 1033.2 hPa 0.6 l/m 6.5 km/h (2 Bft) SO 0.00 h 0 W/m 2.2 C 2.9 C
10.02.2005 21:00 4.0 C 85 % 1032.6 hPa 0.0 l/m 10.2 km/h (2 Bft) SO 0.00 h 0 W/m 1.6 C 1.6 C
10.02.2005 22:00 3.9 C 78 % 1032.6 hPa 0.0 l/m 5.5 km/h (1 Bft) SO 0.00 h 0 W/m 0.5 C 2.8 C
10.02.2005 23:00 4.3 C 77 % 1032.5 hPa 0.0 l/m 5.6 km/h (1 Bft) SO 0.00 h 0 W/m 0.6 C 3.1 C
11.02.2005 00:00 4.0 C 80 % 1032.6 hPa 0.0 l/m 0.6 km/h (0 Bft) N-NW 0.00 h 0 W/m 0.8 C 4.0 C
11.02.2005 01:00 4.0 C 86 % 1032.4 hPa 0.0 l/m 4.9 km/h (1 Bft) SO 0.00 h 0 W/m 1.8 C 2.9 C
11.02.2005 02:00 4.5 C 84 % 1031.5 hPa 0.0 l/m 9.7 km/h (2 Bft) SO 0.00 h 0 W/m 1.9 C 2.3 C
11.02.2005 03:00 4.2 C 84 % 1031.0 hPa 0.3 l/m 7.0 km/h (2 Bft) SO 0.00 h 0 W/m 1.8 C 2.6 C
11.02.2005 04:00 3.9 C 90 % 1030.5 hPa 0.3 l/m 3.0 km/h (1 Bft) SO 0.00 h 0 W/m 2.4 C 3.3 C
11.02.2005 05:00 3.7 C 94 % 1030.1 hPa 0.0 l/m 1.1 km/h (0 Bft) O-SO 0.00 h 0 W/m 2.7 C 3.5 C
11.02.2005 06:00 3.3 C 97 % 1029.5 hPa 0.0 l/m 2.3 km/h (1 Bft) O-SO 0.00 h 0 W/m 2.8 C 2.9 C
11.02.2005 07:00 3.3 C 99 % 1028.5 hPa 0.0 l/m 3.9 km/h (1 Bft) SO 0.00 h 6 W/m 3.1 C 2.4 C
11.02.2005 08:00 4.1 C 96 % 1028.4 hPa 0.0 l/m 4.9 km/h (1 Bft) S-SO 0.00 h 26 W/m 3.5 C 3.0 C
11.02.2005 09:00 4.7 C 85 % 1028.3 hPa 0.0 l/m 4.3 km/h (1 Bft) SO 0.00 h 61 W/m 2.4 C 3.9 C
11.02.2005 10:00 5.6 C 79 % 1028.2 hPa 0.0 l/m 11.7 km/h (2 Bft) W 0.00 h 100 W/m 2.1 C 3.5 C
11.02.2005 11:00 5.4 C 77 % 1028.2 hPa 0.0 l/m 13.3 km/h (3 Bft) W 0.00 h 74 W/m 1.7 C 2.9 C
11.02.2005 12:00 5.4 C 80 % 1027.3 hPa 0.3 l/m 7.6 km/h (2 Bft) W 0.00 h 75 W/m 2.3 C 3.8 C
11.02.2005 13:00 5.6 C 82 % 1026.7 hPa 0.0 l/m 2.3 km/h (1 Bft) W 0.00 h 84 W/m 2.8 C 5.2 C
11.02.2005 14:00 5.7 C 84 % 1026.1 hPa 0.0 l/m 2.3 km/h (1 Bft) SO 0.00 h 66 W/m 3.1 C 5.4 C
11.02.2005 15:00 5.4 C 87 % 1025.9 hPa 0.3 l/m 2.7 km/h (1 Bft) SO 0.00 h 54 W/m 3.4 C 5.1 C
11.02.2005 16:00 5.1 C 91 % 1025.1 hPa 0.0 l/m 5.2 km/h (1 Bft) SO 0.00 h 33 W/m 3.7 C 4.2 C
11.02.2005 17:00 4.7 C 94 % 1025.2 hPa 0.3 l/m 5.9 km/h (2 Bft) S 0.00 h 12 W/m 3.8 C 3.5 C
11.02.2005 18:00 4.7 C 97 % 1025.2 hPa 0.0 l/m 7.2 km/h (2 Bft) SO 0.00 h 0 W/m 4.2 C 3.1 C
11.02.2005 19:00 4.7 C 99 % 1025.2 hPa 0.3 l/m 5.4 km/h (1 Bft) SO 0.00 h 0 W/m 4.6 C 3.7 C
11.02.2005 20:00 5.0 C 100 % 1025.0 hPa 0.0 l/m 2.3 km/h (1 Bft) SO 0.00 h 0 W/m 4.9 C 4.6 C
11.02.2005 21:00 5.2 C 100 % 1024.1 hPa 0.0 l/m 0.9 km/h (0 Bft) S 0.00 h 0 W/m 5.2 C 5.1 C
11.02.2005 22:00 5.4 C 100 % 1024.0 hPa 0.0 l/m 0.6 km/h (0 Bft) NO 0.00 h 0 W/m 5.4 C 5.3 C
11.02.2005 23:00 5.5 C 100 % 1023.1 hPa 0.0 l/m 0.1 km/h (0 Bft) N 0.00 h 0 W/m 5.5 C 5.5 C
12.02.2005 00:00 5.6 C 100 % 1022.7 hPa 0.3 l/m 0.5 km/h (0 Bft) W 0.00 h 0 W/m 5.6 C 5.6 C
12.02.2005 01:00 5.9 C 100 % 1021.6 hPa 0.0 l/m 3.6 km/h (1 Bft) S 0.00 h 0 W/m 5.9 C 5.4 C
12.02.2005 02:00 6.0 C 100 % 1020.8 hPa 0.3 l/m 5.4 km/h (1 Bft) O 0.00 h 0 W/m 6.0 C 5.2 C
12.02.2005 03:00 6.2 C 99 % 1020.0 hPa 0.0 l/m 6.9 km/h (2 Bft) S-SO 0.00 h 0 W/m 6.1 C 4.9 C
12.02.2005 04:00 6.4 C 99 % 1018.9 hPa 0.3 l/m 8.5 km/h (2 Bft) O 0.00 h 0 W/m 6.3 C 4.7 C
12.02.2005 05:00 6.6 C 99 % 1018.0 hPa 0.6 l/m 6.7 km/h (2 Bft) NO 0.00 h 0 W/m 6.5 C 5.5 C
12.02.2005 06:00 6.9 C 100 % 1017.6 hPa 1.5 l/m 9.1 km/h (2 Bft) W-SW 0.00 h 0 W/m 6.9 C 5.4 C
12.02.2005 07:00 7.2 C 100 % 1017.3 hPa 1.5 l/m 13.6 km/h (3 Bft) SW 0.00 h 3 W/m 7.2 C 4.6 C
12.02.2005 08:00 7.4 C 100 % 1016.5 hPa 1.5 l/m 10.4 km/h (2 Bft) S-SW 0.00 h 14 W/m 7.4 C 5.6 C
12.02.2005 09:00 8.3 C 98 % 1016.2 hPa 0.3 l/m 14.6 km/h (3 Bft) NO 0.00 h 31 W/m 7.9 C 6.0 C
12.02.2005 10:00 8.7 C 95 % 1015.3 hPa 2.4 l/m 17.8 km/h (3 Bft) SW 0.00 h 46 W/m 7.9 C 6.0 C
12.02.2005 11:00 9.1 C 93 % 1014.3 hPa 0.3 l/m 13.0 km/h (3 Bft) S-SW 0.00 h 71 W/m 8.0 C 7.2 C
12.02.2005 12:00 9.9 C 88 % 1013.5 hPa 0.0 l/m 12.8 km/h (3 Bft) W 0.00 h 66 W/m 8.1 C 8.4 C
12.02.2005 13:00 10.3 C 79 % 1012.2 hPa 0.0 l/m 13.5 km/h (3 Bft) SW 0.00 h 106 W/m 6.8 C 10.2 C
12.02.2005 14:00 9.6 C 83 % 1010.6 hPa 0.6 l/m 16.1 km/h (3 Bft) S-SW 0.00 h 56 W/m 6.9 C 7.5 C
12.02.2005 15:00 8.9 C 90 % 1010.1 hPa 2.4 l/m 17.2 km/h (3 Bft) W 0.00 h 27 W/m 7.3 C 6.3 C
12.02.2005 16:00 8.4 C 94 % 1009.1 hPa 2.7 l/m 17.3 km/h (3 Bft) W-NW 0.00 h 15 W/m 7.5 C 5.8 C
12.02.2005 17:00 8.0 C 97 % 1008.5 hPa 0.6 l/m 13.5 km/h (3 Bft) W 0.00 h 4 W/m 7.6 C 5.8 C
12.02.2005 18:00 8.3 C 94 % 1008.0 hPa 0.0 l/m 18.5 km/h (3 Bft) W-NW 0.00 h 0 W/m 7.4 C 5.5 C
12.02.2005 19:00 9.0 C 88 % 1006.9 hPa 0.0 l/m 23.1 km/h (4 Bft) W 0.00 h 0 W/m 7.0 C 5.8 C
12.02.2005 20:00 8.6 C 93 % 1005.8 hPa 1.5 l/m 22.4 km/h (4 Bft) W 0.00 h 0 W/m 7.5 C 5.6 C
12.02.2005 21:00 8.6 C 89 % 1004.9 hPa 0.9 l/m 38.0 km/h (5 Bft) W-NW 0.00 h 0 W/m 6.9 C 4.5 C
12.02.2005 22:00 7.7 C 87 % 1005.3 hPa 0.6 l/m 56.4 km/h (7 Bft) W-NW 0.00 h 0 W/m 5.8 C 2.1 C
12.02.2005 23:00 7.2 C 81 % 1006.7 hPa 0.0 l/m 45.3 km/h (6 Bft) W-NW 0.00 h 0 W/m 4.1 C 2.0 C
13.02.2005 00:00 6.3 C 81 % 1007.8 hPa 0.3 l/m 45.5 km/h (6 Bft) W-NW 0.00 h 0 W/m 3.2 C 0.7 C
13.02.2005 01:00 6.4 C 73 % 1008.2 hPa 0.0 l/m 52.4 km/h (7 Bft) W-NW 0.00 h 0 W/m 2.0 C 0.5 C
13.02.2005 02:00 6.0 C 70 % 1007.6 hPa 0.0 l/m 46.2 km/h (6 Bft) W-NW 0.00 h 0 W/m 1.1 C 0.3 C
13.02.2005 03:00 3.9 C 77 % 1008.8 hPa 0.0 l/m 50.2 km/h (7 Bft) W-NW 0.00 h 0 W/m 0.2 C -2.7 C
13.02.2005 04:00 4.0 C 76 % 1008.7 hPa 0.0 l/m 46.4 km/h (6 Bft) W-NW 0.00 h 0 W/m 0.2 C -2.4 C
13.02.2005 05:00 3.8 C 76 % 1008.6 hPa 0.3 l/m 41.2 km/h (6 Bft) W-NW 0.00 h 0 W/m -0.0 C -2.4 C
13.02.2005 06:00 3.3 C 80 % 1008.1 hPa 0.0 l/m 43.9 km/h (6 Bft) W-NW 0.00 h 0 W/m 0.2 C -3.2 C
13.02.2005 07:00 3.5 C 76 % 1007.7 hPa 0.3 l/m 35.8 km/h (5 Bft) W-NW 0.00 h 4 W/m -0.3 C -2.4 C
13.02.2005 08:00 1.9 C 87 % 1007.2 hPa 0.6 l/m 35.8 km/h (5 Bft) NW 0.00 h 41 W/m 0.0 C -4.3 C
13.02.2005 09:00 3.6 C 71 % 1005.9 hPa 0.3 l/m 43.0 km/h (6 Bft) W-NW 0.83 h 266 W/m -1.1 C -2.7 C
13.02.2005 10:00 3.0 C 77 % 1005.6 hPa 0.3 l/m 34.1 km/h (5 Bft) W-NW 0.00 h 103 W/m -0.7 C -2.8 C
13.02.2005 11:00 3.8 C 69 % 1004.2 hPa 0.0 l/m 27.8 km/h (4 Bft) W-NW 0.10 h 194 W/m -1.5 C -1.3 C
13.02.2005 12:00 3.8 C 65 % 1002.5 hPa 0.0 l/m 34.8 km/h (5 Bft) W-NW 0.00 h 108 W/m -2.2 C -1.9 C
13.02.2005 13:00 1.9 C 88 % 1001.2 hPa 0.9 l/m 21.6 km/h (4 Bft) NW 0.00 h 93 W/m 0.2 C -2.7 C
13.02.2005 14:00 1.7 C 92 % 999.7 hPa 1.2 l/m 8.8 km/h (2 Bft) NW 0.00 h 44 W/m 0.5 C -0.7 C
13.02.2005 15:00 1.1 C 97 % 999.2 hPa 1.5 l/m 22.7 km/h (4 Bft) W-NW 0.07 h 82 W/m 0.8 C -3.8 C
13.02.2005 16:00 1.1 C 96 % 998.7 hPa 1.2 l/m 19.8 km/h (4 Bft) NW 0.00 h 16 W/m 0.6 C -3.7 C
13.02.2005 17:00 0.8 C 99 % 998.7 hPa 0.3 l/m 16.6 km/h (3 Bft) NW 0.00 h 13 W/m 0.7 C -3.2 C
13.02.2005 18:00 0.6 C 100 % 998.8 hPa 0.0 l/m 7.8 km/h (2 Bft) W-NW 0.00 h 0 W/m 0.5 C -1.6 C
13.02.2005 19:00 0.3 C 100 % 999.8 hPa 0.0 l/m 9.7 km/h (2 Bft) W-NW 0.00 h 0 W/m 0.3 C -2.4 C
13.02.2005 20:00 0.0 C 100 % 1000.0 hPa 0.0 l/m 20.2 km/h (4 Bft) W-NW 0.00 h 0 W/m -0.0 C -5.2 C
13.02.2005 21:00 0.1 C 98 % 1000.9 hPa 0.0 l/m 21.0 km/h (4 Bft) W-NW 0.00 h 0 W/m -0.3 C -5.2 C
13.02.2005 22:00 -0.2 C 97 % 1002.5 hPa 0.3 l/m 4.7 km/h (1 Bft) NW 0.00 h 0 W/m -0.6 C -1.6 C
13.02.2005 23:00 -0.6 C 100 % 1003.2 hPa 0.0 l/m 5.4 km/h (1 Bft) O-SO 0.00 h 0 W/m -0.7 C -2.2 C
Min-Datum _ 08.02.05 08.02.05 13.02.05 - 07.02.05 - - - 08.02.05 08.02.05
_ Min-Zeit 06:44 14:27 16:05 - 00:00 - - - 06:44 02:28
Minimum _ -5.3 C 38 % 998.5 hPa - 0.0 km/h (0 Bft) - - - -6.4 C -8.0 C
Max-Datum _ 12.02.05 11.02.05 10.02.05 12.02.05 12.02.05 - 07.02.05 08.02.05 12.02.05 12.02.05
_ Max-Zeit 13:20 07:56 08:08 16:06 22:28 - 09:52 12:27 12:02 13:20
Maximum _ 11.0 C 100 % 1036.8 hPa 2.7 l/m 77.2 km/h
W-NW (9 Bft)
- 0.03 h 600 W/m 8.9 C 11.0 C
Durchschnitt _ 2.2 C 83 % 1024.4 hPa #28.2 l/m 9.0 km/h (2 Bft) O-SO #25:10 h 146 W/m -0.7 C 0.6 C

Durchschnitt Minimum Temp.1.7 C
Durchschnitt Maximum Temp.2.6 C
© Kaiko 2005